Time;durP1;ratioP1;P1;durP2;ratioP2;P2;SDS_P1;SDS_P2;PMS_P1;PMS_P2;Temp;Humidity;BMP_temperature;BMP_pressure;BME280_temperature;BME280_humidity;BME280_pressure;Samples;Min_cycle;Max_cycle;Signal;HPM_P1;HPM_P2
2024/03/21 00:00:24;;;;;;;3.97;1.55;;;17.60;84.90;;;;;;5034571;28;20028;-46
2024/03/21 00:02:51;;;;;;;2.47;1.75;;;17.60;85.00;;;;;;5034415;28;20111;-45
2024/03/21 00:05:17;;;;;;;7.82;2.17;;;17.50;85.10;;;;;;5034091;28;20404;-45
2024/03/21 00:07:45;;;;;;;5.38;1.70;;;17.50;85.30;;;;;;5033856;28;20484;-44
2024/03/21 00:10:15;;;;;;;6.07;2.17;;;17.40;85.30;;;;;;5033927;28;20033;-44
2024/03/21 00:12:42;;;;;;;2.95;1.67;;;17.50;85.40;;;;;;5034345;28;20026;-45
2024/03/21 00:15:08;;;;;;;3.03;1.38;;;17.40;85.40;;;;;;5033821;28;20091;-44
2024/03/21 00:17:35;;;;;;;4.15;1.90;;;17.40;85.50;;;;;;5033736;28;20026;-45
2024/03/21 00:20:10;;;;;;;4.35;1.85;;;17.40;85.50;;;;;;5033669;28;20116;-44
2024/03/21 00:22:41;;;;;;;6.22;2.00;;;17.30;85.50;;;;;;5033735;28;20104;-44
2024/03/21 00:25:10;;;;;;;5.80;1.60;;;17.40;85.60;;;;;;5033658;28;20033;-44
2024/03/21 00:27:38;;;;;;;4.53;1.60;;;17.30;85.60;;;;;;5033491;28;20056;-44
2024/03/21 00:30:07;;;;;;;3.00;1.50;;;17.30;85.70;;;;;;5033636;28;20068;-43
2024/03/21 00:32:34;;;;;;;7.13;1.77;;;17.30;85.70;;;;;;5032186;28;20132;-44
2024/03/21 00:35:00;;;;;;;3.33;1.67;;;17.30;85.70;;;;;;5034073;28;20018;-43
2024/03/21 00:37:26;;;;;;;2.45;1.65;;;17.20;86.30;;;;;;5033300;28;20100;-43
2024/03/21 00:39:54;;;;;;;3.15;1.40;;;17.20;85.60;;;;;;5033224;28;20105;-44
2024/03/21 00:42:20;;;;;;;4.78;1.40;;;17.20;85.70;;;;;;5033612;28;20501;-44
2024/03/21 00:44:46;;;;;;;3.58;1.38;;;17.10;85.70;;;;;;5033113;28;20144;-43
2024/03/21 00:47:12;;;;;;;2.80;1.33;;;17.10;85.80;;;;;;5031959;28;20033;-44
2024/03/21 00:49:38;;;;;;;2.65;1.40;;;17.10;85.80;;;;;;5033184;28;20026;-43
2024/03/21 00:52:04;;;;;;;2.97;1.50;;;17.10;85.80;;;;;;5033020;28;20033;-43
2024/03/21 00:54:29;;;;;;;2.60;1.40;;;17.10;85.90;;;;;;5033258;28;20508;-44
2024/03/21 00:56:55;;;;;;;3.42;1.70;;;17.10;85.90;;;;;;5032981;28;20033;-43
2024/03/21 00:59:21;;;;;;;3.97;1.70;;;17.10;85.90;;;;;;5032851;28;20063;-43
2024/03/21 01:01:48;;;;;;;3.17;1.65;;;17.10;85.90;;;;;;5031712;28;20040;-44
2024/03/21 01:04:14;;;;;;;2.22;1.48;;;17.10;86.70;;;;;;5033137;28;20021;-44
2024/03/21 01:06:40;;;;;;;2.70;1.35;;;17.00;85.90;;;;;;5032658;28;20033;-44
2024/03/21 01:09:08;;;;;;;5.70;1.65;;;17.00;85.90;;;;;;5031460;28;20033;-44
2024/03/21 01:11:34;;;;;;;4.05;1.80;;;17.00;86.00;;;;;;5032595;28;20511;-44
2024/03/21 01:13:59;;;;;;;3.58;1.90;;;17.00;86.00;;;;;;5032894;28;20026;-44
2024/03/21 01:16:26;;;;;;;4.68;1.92;;;17.00;86.00;;;;;;5032554;28;20079;-44
2024/03/21 01:18:52;;;;;;;3.85;1.83;;;17.00;86.10;;;;;;5032491;28;20465;-45
2024/03/21 01:21:17;;;;;;;3.10;1.40;;;17.00;86.10;;;;;;5031119;28;20056;-44
2024/03/21 01:23:43;;;;;;;3.05;1.30;;;16.90;86.00;;;;;;5032557;28;20135;-44
2024/03/21 01:26:09;;;;;;;3.60;1.80;;;17.00;86.00;;;;;;5032592;28;20029;-44
2024/03/21 01:28:35;;;;;;;3.28;1.70;;;16.90;86.00;;;;;;5032579;28;20032;-44
2024/03/21 01:31:14;;;;;;;2.88;1.50;;;16.90;86.10;;;;;;5032226;28;20030;-46
2024/03/21 01:33:41;;;;;;;2.33;1.70;;;16.90;86.10;;;;;;5060952;28;20029;-44
2024/03/21 01:36:07;;;;;;;2.70;1.75;;;16.90;86.30;;;;;;5030899;28;20096;-45
2024/03/21 01:38:32;;;;;;;2.75;1.60;;;16.90;86.30;;;;;;5032297;28;20025;-45
2024/03/21 01:40:58;;;;;;;5.55;1.65;;;16.90;86.40;;;;;;5032396;28;20025;-44
2024/03/21 01:43:24;;;;;;;3.38;1.75;;;16.90;86.30;;;;;;5032909;28;20029;-44
2024/03/21 01:46:17;;;;;;;1.88;1.40;;;16.90;86.40;;;;;;5031911;28;20041;-44
2024/03/21 01:48:44;;;;;;;2.03;1.40;;;16.90;86.40;;;;;;5032223;28;20026;-45
2024/03/21 01:51:12;;;;;;;3.97;1.55;;;16.90;86.40;;;;;;5031965;28;20033;-44
2024/03/21 01:53:43;;;;;;;3.85;1.60;;;16.90;86.30;;;;;;5032185;28;20025;-44
2024/03/21 01:56:09;;;;;;;5.40;1.75;;;16.90;86.10;;;;;;5031781;28;20025;-44
2024/03/21 01:58:34;;;;;;;5.45;1.48;;;16.90;86.00;;;;;;5031875;28;20463;-45
2024/03/21 02:01:19;;;;;;;2.67;1.58;;;16.90;86.00;;;;;;5031920;28;20567;-44
2024/03/21 02:03:45;;;;;;;5.03;1.70;;;16.80;86.10;;;;;;5032097;28;20029;-45
2024/03/21 02:06:11;;;;;;;2.33;1.55;;;16.80;86.20;;;;;;5031701;28;20053;-45
2024/03/21 02:08:38;;;;;;;3.33;1.67;;;16.80;86.20;;;;;;5030533;28;20045;-44
2024/03/21 02:11:03;;;;;;;1.88;1.40;;;16.80;86.20;;;;;;5031169;28;20017;-44
2024/03/21 02:13:29;;;;;;;5.75;1.48;;;16.80;86.10;;;;;;5031452;28;20041;-45
2024/03/21 02:15:55;;;;;;;2.60;1.33;;;16.80;86.20;;;;;;5031477;28;20021;-45
2024/03/21 02:18:21;;;;;;;4.95;1.40;;;16.80;86.20;;;;;;5031325;28;20028;-45
2024/03/21 02:20:47;;;;;;;3.17;1.63;;;16.80;86.20;;;;;;5031410;28;20049;-45
2024/03/21 02:23:12;;;;;;;2.17;1.10;;;16.80;86.30;;;;;;5031514;28;20393;-45
2024/03/21 02:25:38;;;;;;;3.85;1.63;;;16.80;86.30;;;;;;5031266;28;20025;-45
2024/03/21 02:28:06;;;;;;;5.90;1.83;;;16.80;87.20;;;;;;5031218;28;20036;-45
2024/03/21 02:30:32;;;;;;;2.17;1.40;;;16.80;86.50;;;;;;5031143;28;20050;-45
2024/03/21 02:32:58;;;;;;;1.98;1.42;;;16.80;86.70;;;;;;5031323;28;20021;-45
2024/03/21 02:35:24;;;;;;;3.33;1.60;;;16.80;86.80;;;;;;5031200;28;20079;-47
2024/03/21 02:37:49;;;;;;;2.90;1.73;;;16.80;86.80;;;;;;5031063;28;20022;-45
2024/03/21 02:40:15;;;;;;;2.30;1.50;;;16.80;86.90;;;;;;5031098;28;20029;-44
2024/03/21 02:42:41;;;;;;;3.38;1.30;;;16.80;87.00;;;;;;5031277;28;20028;-44
2024/03/21 02:45:07;;;;;;;2.00;1.38;;;16.80;87.10;;;;;;5031186;28;20029;-44
2024/03/21 02:47:34;;;;;;;5.00;1.40;;;16.80;87.10;;;;;;5031248;28;20033;-44
2024/03/21 02:50:00;;;;;;;1.88;1.20;;;16.80;87.20;;;;;;5031093;28;20104;-46
2024/03/21 02:52:25;;;;;;;1.73;1.17;;;16.80;87.30;;;;;;5031037;28;20108;-44
2024/03/21 02:54:51;;;;;;;2.65;1.35;;;16.80;87.40;;;;;;5031022;28;20033;-44
2024/03/21 02:57:16;;;;;;;3.67;1.60;;;16.80;87.50;;;;;;5030780;28;20033;-45
2024/03/21 02:59:42;;;;;;;3.25;1.13;;;16.80;87.60;;;;;;5031043;28;20029;-45
2024/03/21 03:02:08;;;;;;;3.15;1.55;;;16.80;87.80;;;;;;5031201;28;20031;-44
2024/03/21 03:04:34;;;;;;;1.88;1.20;;;16.80;87.90;;;;;;5031206;28;20041;-44
2024/03/21 03:06:59;;;;;;;2.47;1.40;;;16.80;88.00;;;;;;5030963;28;20485;-44
2024/03/21 03:09:25;;;;;;;4.50;1.58;;;16.80;88.20;;;;;;5030896;28;20029;-44
2024/03/21 03:11:51;;;;;;;1.90;1.30;;;16.80;88.30;;;;;;5030926;28;20026;-44
2024/03/21 03:14:16;;;;;;;3.75;1.50;;;16.80;88.40;;;;;;5030935;28;20029;-45
2024/03/21 03:16:42;;;;;;;2.40;1.40;;;16.80;88.40;;;;;;5030992;28;20022;-45
2024/03/21 03:19:08;;;;;;;4.05;1.30;;;16.80;89.30;;;;;;5030835;28;20071;-44
2024/03/21 03:21:33;;;;;;;2.35;1.50;;;16.70;88.50;;;;;;5030809;28;20026;-45
2024/03/21 03:23:59;;;;;;;2.22;1.30;;;16.80;88.80;;;;;;5031934;28;20528;-44
2024/03/21 03:26:25;;;;;;;5.80;1.40;;;16.70;88.90;;;;;;5034583;28;20040;-45
2024/03/21 03:28:50;;;;;;;2.88;1.30;;;16.70;89.10;;;;;;5034619;28;20021;-44
2024/03/21 03:31:16;;;;;;;4.35;1.42;;;16.70;89.30;;;;;;5034386;28;20061;-44
2024/03/21 03:36:27;;;;;;;2.53;1.38;;;16.80;90.20;;;;;;5034342;28;20028;-44
2024/03/21 03:38:53;;;;;;;6.28;1.40;;;16.80;89.90;;;;;;5034309;28;20017;-44
2024/03/21 03:41:19;;;;;;;3.85;1.48;;;16.80;89.90;;;;;;5034529;28;20033;-44
2024/03/21 03:43:45;;;;;;;1.88;1.17;;;16.80;90.00;;;;;;5034354;28;20491;-45
2024/03/21 03:46:10;;;;;;;3.45;1.10;;;16.80;90.00;;;;;;5034224;28;20027;-44
2024/03/21 03:48:36;;;;;;;7.45;1.42;;;16.90;90.10;;;;;;5034265;28;20503;-44
2024/03/21 03:51:01;;;;;;;3.47;1.45;;;16.80;90.10;;;;;;5033984;28;20163;-45
2024/03/21 03:53:27;;;;;;;1.85;1.45;;;16.90;90.10;;;;;;5034179;28;20071;-45
2024/03/21 03:55:53;;;;;;;2.80;1.50;;;16.90;90.10;;;;;;5034142;28;20021;-44
2024/03/21 03:58:19;;;;;;;3.28;1.33;;;16.90;90.00;;;;;;5033830;28;20025;-44
2024/03/21 04:00:45;;;;;;;4.50;1.30;;;16.90;90.40;;;;;;5034013;28;20036;-44
2024/03/21 04:03:11;;;;;;;2.78;1.58;;;16.90;90.00;;;;;;5034008;28;20100;-44
2024/03/21 04:05:38;;;;;;;2.63;1.30;;;16.90;90.00;;;;;;5033798;28;20021;-45
2024/03/21 04:08:04;;;;;;;1.90;1.20;;;16.90;90.00;;;;;;5034139;28;20427;-45
2024/03/21 04:10:29;;;;;;;3.42;1.35;;;16.90;90.10;;;;;;5033756;28;20025;-45
2024/03/21 04:12:55;;;;;;;4.20;1.50;;;16.90;90.10;;;;;;5033994;28;20381;-45
2024/03/21 04:15:21;;;;;;;2.85;1.27;;;16.90;90.20;;;;;;5033852;28;20045;-44
2024/03/21 04:17:49;;;;;;;3.78;1.30;;;16.90;90.20;;;;;;5032232;28;20026;-44
2024/03/21 04:20:15;;;;;;;1.85;1.30;;;16.90;90.20;;;;;;5033510;28;20477;-44
2024/03/21 04:22:40;;;;;;;2.08;1.30;;;16.90;90.30;;;;;;5033646;28;20040;-44
2024/03/21 04:25:06;;;;;;;2.97;1.30;;;16.90;90.30;;;;;;5033605;28;20091;-46
2024/03/21 04:27:32;;;;;;;4.00;1.20;;;16.90;90.40;;;;;;5033353;28;20121;-44
2024/03/21 04:30:01;;;;;;;2.05;1.10;;;16.90;90.40;;;;;;5033511;28;20030;-44
2024/03/21 04:32:26;;;;;;;3.60;1.30;;;16.90;90.40;;;;;;5033333;28;20084;-45
2024/03/21 04:34:52;;;;;;;2.97;1.50;;;16.90;90.40;;;;;;5033260;28;20030;-45
2024/03/21 04:37:18;;;;;;;1.95;1.20;;;16.90;90.40;;;;;;5033170;28;20433;-45
2024/03/21 04:39:48;;;;;;;2.38;1.20;;;16.90;90.40;;;;;;5033275;28;20029;-45
2024/03/21 04:42:15;;;;;;;1.50;1.00;;;16.90;90.40;;;;;;5033466;28;20100;-45
2024/03/21 04:44:41;;;;;;;2.38;1.20;;;16.90;90.50;;;;;;5033125;28;20029;-44
2024/03/21 04:47:07;;;;;;;2.30;1.50;;;16.90;90.50;;;;;;5032859;28;20389;-44
2024/03/21 04:49:33;;;;;;;3.00;1.13;;;16.90;90.50;;;;;;5033086;28;20056;-45
2024/03/21 04:51:58;;;;;;;2.88;1.17;;;16.90;90.50;;;;;;5033055;28;20029;-44
2024/03/21 04:54:24;;;;;;;2.80;1.25;;;16.90;90.50;;;;;;5033169;28;20076;-44
2024/03/21 04:56:49;;;;;;;2.78;1.33;;;16.90;90.60;;;;;;5032884;28;20061;-44
2024/03/21 04:59:15;;;;;;;4.53;1.40;;;16.90;90.60;;;;;;5033163;28;20036;-43
2024/03/21 05:01:41;;;;;;;3.00;1.42;;;16.90;90.60;;;;;;5031544;28;20030;-45
2024/03/21 05:04:06;;;;;;;2.03;1.38;;;16.90;90.60;;;;;;5032800;28;20037;-45
2024/03/21 05:06:32;;;;;;;2.20;1.30;;;16.90;90.60;;;;;;5032676;28;20452;-44
2024/03/21 05:08:58;;;;;;;2.95;1.40;;;16.90;90.60;;;;;;5032717;28;20504;-44
2024/03/21 05:11:23;;;;;;;3.72;1.65;;;16.90;90.60;;;;;;5032440;28;20056;-45
2024/03/21 05:13:50;;;;;;;2.17;1.45;;;16.90;90.70;;;;;;5032698;28;20036;-45
2024/03/21 05:16:16;;;;;;;1.63;1.38;;;16.90;90.70;;;;;;5031082;28;20021;-45
2024/03/21 05:18:42;;;;;;;3.45;1.40;;;16.90;90.70;;;;;;5032422;28;20473;-45
2024/03/21 05:21:08;;;;;;;3.17;1.45;;;16.90;90.70;;;;;;5032541;28;20040;-44
2024/03/21 05:23:34;;;;;;;5.32;1.55;;;16.90;90.80;;;;;;5032629;28;20025;-45
2024/03/21 05:25:59;;;;;;;2.20;1.77;;;16.90;90.80;;;;;;5032330;28;20056;-46
2024/03/21 05:28:25;;;;;;;4.25;1.95;;;16.80;90.80;;;;;;5032287;28;20069;-44
2024/03/21 05:30:51;;;;;;;2.85;1.90;;;16.80;90.90;;;;;;5030938;28;20025;-44
2024/03/21 05:33:16;;;;;;;3.00;1.48;;;16.80;90.90;;;;;;5031439;28;20026;-44
2024/03/21 05:35:42;;;;;;;2.35;1.30;;;16.90;91.00;;;;;;5032399;28;20053;-45
2024/03/21 05:38:07;;;;;;;3.55;1.50;;;16.90;90.90;;;;;;5032214;28;20031;-44
2024/03/21 05:40:33;;;;;;;3.15;1.70;;;16.80;91.00;;;;;;5031184;28;20056;-44
2024/03/21 05:42:59;;;;;;;2.67;1.50;;;16.90;91.00;;;;;;5032260;28;20021;-44
2024/03/21 05:45:24;;;;;;;2.35;1.40;;;16.90;91.00;;;;;;5031973;28;20037;-44
2024/03/21 05:47:50;;;;;;;2.80;1.48;;;16.90;91.10;;;;;;5031990;28;20467;-44
2024/03/21 05:50:16;;;;;;;4.20;1.42;;;16.90;91.10;;;;;;5032142;28;20030;-44
2024/03/21 05:52:42;;;;;;;2.58;1.50;;;16.90;91.10;;;;;;5031938;28;20033;-44
2024/03/21 05:55:08;;;;;;;9.45;1.90;;;16.90;91.20;;;;;;5031937;28;20013;-44
2024/03/21 05:57:36;;;;;;;2.53;1.50;;;16.90;91.20;;;;;;5030318;28;20459;-44
2024/03/21 06:00:06;;;;;;;4.20;1.73;;;16.90;91.30;;;;;;5032012;28;20022;-45
2024/03/21 06:02:32;;;;;;;4.38;1.90;;;16.90;91.30;;;;;;5032220;28;20087;-45
2024/03/21 06:04:58;;;;;;;3.63;1.90;;;16.90;91.30;;;;;;5031813;28;20029;-45
2024/03/21 06:07:24;;;;;;;2.55;1.58;;;16.90;91.40;;;;;;5030249;28;20033;-45
2024/03/21 06:09:50;;;;;;;2.83;1.52;;;16.90;91.40;;;;;;5031487;28;20076;-45
2024/03/21 06:12:15;;;;;;;4.85;1.58;;;16.90;91.40;;;;;;5031568;28;20029;-43
2024/03/21 06:14:42;;;;;;;3.15;1.48;;;16.90;91.50;;;;;;5031449;28;20116;-41
2024/03/21 06:17:07;;;;;;;3.22;1.60;;;17.00;91.60;;;;;;5031392;28;20024;-42
2024/03/21 06:19:33;;;;;;;3.47;1.60;;;17.00;91.70;;;;;;5031419;28;20029;-43
2024/03/21 06:21:58;;;;;;;2.15;1.50;;;17.00;91.60;;;;;;5031514;28;20029;-43
2024/03/21 06:24:24;;;;;;;2.70;1.60;;;17.10;91.60;;;;;;5031491;28;20026;-43
2024/03/21 06:26:50;;;;;;;3.50;1.40;;;17.10;91.60;;;;;;5031332;28;20397;-43
2024/03/21 06:29:15;;;;;;;2.40;1.55;;;17.10;91.50;;;;;;5031214;28;20036;-44
2024/03/21 06:31:41;;;;;;;2.78;1.50;;;17.10;91.50;;;;;;5031380;28;20111;-42
2024/03/21 06:34:07;;;;;;;2.60;1.40;;;17.20;91.50;;;;;;5031351;28;20045;-43
2024/03/21 06:36:32;;;;;;;2.22;1.20;;;17.20;91.40;;;;;;5031277;28;20101;-44
2024/03/21 06:38:58;;;;;;;3.70;1.60;;;17.30;91.40;;;;;;5031414;28;20532;-43
2024/03/21 06:41:24;;;;;;;2.97;1.80;;;17.20;91.30;;;;;;5029772;28;20432;-44
2024/03/21 06:43:50;;;;;;;4.88;1.65;;;17.30;91.30;;;;;;5031138;28;20032;-43
2024/03/21 06:46:16;;;;;;;3.42;1.50;;;17.30;91.20;;;;;;5031069;28;20076;-43
2024/03/21 06:48:41;;;;;;;2.60;1.65;;;17.30;91.20;;;;;;5031329;28;20026;-44
2024/03/21 06:51:08;;;;;;;2.70;1.42;;;17.40;91.20;;;;;;5031104;28;20106;-44
2024/03/21 06:53:34;;;;;;;3.60;1.48;;;17.40;91.30;;;;;;5031215;28;20197;-44
2024/03/21 06:56:00;;;;;;;1.80;1.33;;;17.40;91.10;;;;;;5030951;28;20025;-44
2024/03/21 06:58:27;;;;;;;1.45;1.27;;;17.50;91.10;;;;;;5031319;28;20033;-42
2024/03/21 07:00:53;;;;;;;2.10;1.35;;;17.40;91.10;;;;;;5035155;28;20079;-44
2024/03/21 07:03:19;;;;;;;1.90;1.20;;;17.50;91.10;;;;;;5035250;28;20033;-44
2024/03/21 07:05:45;;;;;;;2.22;1.45;;;17.50;91.00;;;;;;5035149;28;20080;-44
2024/03/21 07:08:11;;;;;;;2.38;1.20;;;17.50;91.00;;;;;;5033875;28;20029;-44
2024/03/21 07:10:37;;;;;;;3.90;1.58;;;17.50;91.00;;;;;;5034931;28;20029;-43
2024/03/21 07:13:03;;;;;;;1.70;1.25;;;17.60;91.00;;;;;;5034892;28;20431;-43
2024/03/21 07:15:28;;;;;;;1.80;1.17;;;17.60;91.00;;;;;;5034871;28;20018;-43
2024/03/21 07:17:54;;;;;;;2.22;1.20;;;17.60;90.90;;;;;;5034687;28;20028;-43
2024/03/21 07:20:19;;;;;;;2.35;1.58;;;17.60;90.90;;;;;;5034785;28;20151;-44
2024/03/21 07:22:46;;;;;;;1.92;1.40;;;17.60;90.90;;;;;;5034818;28;20028;-43
2024/03/21 07:25:11;;;;;;;1.55;1.15;;;17.60;90.90;;;;;;5034698;28;20104;-42
2024/03/21 07:27:37;;;;;;;1.40;1.10;;;17.70;90.90;;;;;;5034416;28;20536;-42
2024/03/21 07:30:08;;;;;;;3.22;1.38;;;17.70;90.90;;;;;;5034884;28;20025;-42
2024/03/21 07:32:37;;;;;;;1.92;1.27;;;17.70;90.90;;;;;;5034681;28;20049;-42
2024/03/21 07:35:03;;;;;;;1.90;1.30;;;17.70;90.90;;;;;;5033616;28;20056;-43
2024/03/21 07:37:28;;;;;;;2.33;1.30;;;17.70;91.00;;;;;;5034419;28;20048;-44
2024/03/21 07:39:54;;;;;;;2.53;1.50;;;17.70;91.10;;;;;;5034517;28;20071;-43
2024/03/21 07:42:20;;;;;;;2.85;1.45;;;17.70;91.10;;;;;;5034326;28;20026;-44
2024/03/21 07:44:45;;;;;;;2.13;1.20;;;17.70;91.20;;;;;;5033408;28;20095;-43
2024/03/21 07:47:11;;;;;;;2.47;1.30;;;17.80;91.20;;;;;;5034268;28;20068;-43
2024/03/21 07:49:38;;;;;;;1.33;1.20;;;17.80;91.30;;;;;;5034227;28;20606;-43
2024/03/21 07:52:03;;;;;;;1.98;1.55;;;17.90;91.30;;;;;;5034242;28;20076;-43
2024/03/21 07:54:33;;;;;;;2.45;1.23;;;17.90;91.30;;;;;;5034603;28;20471;-44
2024/03/21 07:56:59;;;;;;;1.92;1.27;;;17.90;91.30;;;;;;5034070;28;20041;-41
2024/03/21 07:59:24;;;;;;;1.80;1.20;;;17.90;91.30;;;;;;5034101;28;20024;-44
2024/03/21 08:01:51;;;;;;;1.63;1.02;;;18.00;91.40;;;;;;5034031;28;20492;-41
2024/03/21 08:04:17;;;;;;;2.40;1.30;;;18.00;91.40;;;;;;5034042;28;20056;-44
2024/03/21 08:06:42;;;;;;;1.60;1.10;;;18.00;91.40;;;;;;5033881;28;20536;-41
2024/03/21 08:09:09;;;;;;;1.67;1.10;;;18.00;91.40;;;;;;5033569;28;20037;-44
2024/03/21 08:11:35;;;;;;;1.27;0.93;;;18.00;91.30;;;;;;5033799;28;20029;-44
2024/03/21 08:14:01;;;;;;;2.25;1.00;;;18.10;91.40;;;;;;5032732;28;20022;-44
2024/03/21 08:16:27;;;;;;;1.95;1.23;;;18.10;91.40;;;;;;5033747;28;20831;-44
2024/03/21 08:18:53;;;;;;;1.92;1.23;;;18.20;91.40;;;;;;5033766;28;20473;-44
2024/03/21 08:21:21;;;;;;;1.75;1.15;;;18.20;91.40;;;;;;5033843;28;20036;-44
2024/03/21 08:23:49;;;;;;;2.42;1.15;;;18.20;91.30;;;;;;5033687;28;20034;-44
2024/03/21 08:26:16;;;;;;;1.30;1.10;;;18.20;91.30;;;;;;5033513;28;20160;-44
2024/03/21 08:28:43;;;;;;;3.53;1.02;;;18.30;91.40;;;;;;5033534;28;20473;-44
2024/03/21 08:31:08;;;;;;;3.58;0.85;;;18.30;91.30;;;;;;5033626;28;20029;-44
2024/03/21 08:33:34;;;;;;;1.52;0.90;;;18.30;91.30;;;;;;5033530;28;20386;-44
2024/03/21 08:35:59;;;;;;;2.63;1.40;;;18.40;91.30;;;;;;5033511;28;20026;-44
2024/03/21 08:38:25;;;;;;;1.77;1.10;;;18.40;91.30;;;;;;5033178;28;20096;-42
2024/03/21 08:40:54;;;;;;;1.65;1.13;;;18.40;91.30;;;;;;5033352;28;20018;-43
2024/03/21 08:43:20;;;;;;;1.02;0.90;;;18.50;91.30;;;;;;5033574;28;20427;-44
2024/03/21 08:45:47;;;;;;;1.30;1.00;;;18.50;91.30;;;;;;5033374;28;20339;-44
2024/03/21 08:48:14;;;;;;;1.67;1.20;;;18.50;91.20;;;;;;5033568;28;20084;-44
2024/03/21 08:50:40;;;;;;;0.98;0.88;;;18.60;91.30;;;;;;5033152;28;20017;-44
2024/03/21 08:53:06;;;;;;;1.67;1.10;;;18.60;91.20;;;;;;5033010;28;20033;-43
2024/03/21 08:55:33;;;;;;;1.58;1.10;;;18.60;91.20;;;;;;5033126;28;20350;-44
2024/03/21 08:57:59;;;;;;;3.42;1.30;;;18.70;91.20;;;;;;5032801;28;20026;-44
2024/03/21 09:00:25;;;;;;;1.45;1.02;;;18.70;91.20;;;;;;5032844;28;20469;-43
2024/03/21 09:02:50;;;;;;;1.75;0.90;;;18.70;91.10;;;;;;5032866;28;20100;-44
2024/03/21 09:05:16;;;;;;;1.30;1.00;;;18.70;91.10;;;;;;5033041;28;20455;-44
2024/03/21 09:07:42;;;;;;;4.13;1.00;;;18.80;91.10;;;;;;5032610;28;20513;-44
2024/03/21 09:10:08;;;;;;;1.50;1.02;;;18.80;91.10;;;;;;5032730;28;20064;-44
2024/03/21 09:12:33;;;;;;;2.08;1.27;;;18.90;91.10;;;;;;5032796;28;20504;-44
2024/03/21 09:14:59;;;;;;;1.20;0.80;;;18.90;91.10;;;;;;5032803;28;20034;-42
2024/03/21 09:17:25;;;;;;;1.60;1.00;;;19.00;91.10;;;;;;5032577;28;20084;-43
2024/03/21 09:19:50;;;;;;;3.55;1.10;;;19.00;91.10;;;;;;5032575;28;20044;-44
2024/03/21 09:22:16;;;;;;;1.40;0.90;;;19.10;91.10;;;;;;5031531;28;20078;-44
2024/03/21 09:24:44;;;;;;;2.08;1.00;;;19.20;91.00;;;;;;5031317;28;20435;-46
2024/03/21 09:27:09;;;;;;;2.25;1.10;;;19.20;91.00;;;;;;5032352;28;20032;-46
2024/03/21 09:29:35;;;;;;;0.95;0.68;;;19.30;90.90;;;;;;5032300;28;20029;-42
2024/03/21 09:32:01;;;;;;;0.88;0.80;;;19.30;90.80;;;;;;5032373;28;20034;-45
2024/03/21 09:34:26;;;;;;;1.25;0.70;;;19.40;90.80;;;;;;5032315;28;20017;-44
2024/03/21 09:36:52;;;;;;;1.92;1.00;;;19.40;90.80;;;;;;5032290;28;20369;-44
2024/03/21 09:39:18;;;;;;;1.90;0.90;;;19.50;90.80;;;;;;5032230;28;20479;-45
2024/03/21 09:41:43;;;;;;;1.40;0.80;;;19.50;90.70;;;;;;5032161;28;20039;-41
2024/03/21 09:44:13;;;;;;;1.10;0.90;;;19.60;90.70;;;;;;5032010;28;20113;-44
2024/03/21 09:46:42;;;;;;;1.10;0.90;;;19.70;90.70;;;;;;5032450;28;20037;-45
2024/03/21 09:49:12;;;;;;;1.27;0.80;;;19.80;91.00;;;;;;5032098;28;20044;-44
2024/03/21 09:51:39;;;;;;;1.10;0.98;;;19.80;90.60;;;;;;5031906;28;20108;-44
2024/03/21 09:54:12;;;;;;;1.65;0.90;;;19.90;90.50;;;;;;5032050;28;20021;-44
2024/03/21 09:56:38;;;;;;;1.63;1.00;;;20.00;90.40;;;;;;5031747;28;20048;-45
2024/03/21 09:59:13;;;;;;;1.35;0.80;;;20.00;90.30;;;;;;5030627;28;20083;-47
2024/03/21 10:01:39;;;;;;;1.00;0.90;;;20.10;90.20;;;;;;5031744;28;20096;-47
2024/03/21 10:04:05;;;;;;;2.08;1.27;;;20.20;90.20;;;;;;5031907;28;20108;-41
2024/03/21 10:06:41;;;;;;;1.00;0.80;;;20.30;90.10;;;;;;5031607;28;20017;-44
2024/03/21 10:09:07;;;;;;;1.20;0.90;;;20.30;90.00;;;;;;5031642;28;20392;-44
2024/03/21 10:11:34;;;;;;;1.45;0.93;;;20.40;89.90;;;;;;5031542;28;20097;-43
2024/03/21 10:14:00;;;;;;;1.92;0.82;;;20.40;89.70;;;;;;5031679;28;20033;-44
2024/03/21 10:16:26;;;;;;;2.05;1.10;;;20.50;89.60;;;;;;5031634;28;20148;-43
2024/03/21 10:18:52;;;;;;;1.40;0.88;;;20.50;89.50;;;;;;5031596;28;20473;-43
2024/03/21 10:21:27;;;;;;;1.58;1.08;;;20.50;89.30;;;;;;5031400;28;20033;-43
2024/03/21 10:24:06;;;;;;;1.33;0.90;;;20.60;89.30;;;;;;5031850;28;20144;-44
2024/03/21 10:26:32;;;;;;;1.20;0.95;;;20.70;89.30;;;;;;5031502;28;20033;-43
2024/03/21 10:28:59;;;;;;;1.75;1.15;;;20.70;89.20;;;;;;5031353;28;20393;-44
2024/03/21 10:31:25;;;;;;;1.35;1.00;;;20.80;89.10;;;;;;5031320;28;20021;-44
2024/03/21 10:33:57;;;;;;;1.75;1.10;;;20.80;88.90;;;;;;5031092;28;20021;-43
2024/03/21 10:36:23;;;;;;;1.52;0.95;;;20.90;88.80;;;;;;5031228;28;20029;-44
2024/03/21 10:38:49;;;;;;;1.30;0.77;;;20.90;88.70;;;;;;5031195;28;20029;-44
2024/03/21 10:41:28;;;;;;;1.55;0.90;;;21.00;88.60;;;;;;5031232;28;20036;-43
2024/03/21 10:44:17;;;;;;;1.45;0.85;;;21.10;88.60;;;;;;5031206;28;20060;-43
2024/03/21 10:46:42;;;;;;;1.08;0.80;;;21.20;88.60;;;;;;5031345;28;20105;-43
2024/03/21 10:49:14;;;;;;;1.60;1.08;;;21.20;88.70;;;;;;5031176;28;20060;-44
2024/03/21 10:51:41;;;;;;;1.27;0.90;;;21.20;88.70;;;;;;5031157;28;20516;-44
2024/03/21 10:54:12;;;;;;;1.58;1.08;;;21.20;89.00;;;;;;5031199;28;20025;-43
2024/03/21 10:56:40;;;;;;;1.45;1.08;;;21.40;88.30;;;;;;5030977;28;20025;-43
2024/03/21 10:59:06;;;;;;;1.52;0.93;;;21.60;87.90;;;;;;5031064;28;20026;-43
2024/03/21 11:01:38;;;;;;;1.10;0.80;;;21.90;87.30;;;;;;5031252;28;20515;-43
2024/03/21 11:04:11;;;;;;;0.82;0.70;;;22.20;87.20;;;;;;5031083;28;20551;-43
2024/03/21 11:06:42;;;;;;;1.10;0.70;;;22.20;86.70;;;;;;5030971;28;20021;-44
2024/03/21 11:09:11;;;;;;;1.15;0.88;;;22.30;86.30;;;;;;5030944;28;20095;-42
2024/03/21 11:11:38;;;;;;;1.77;0.93;;;22.30;86.00;;;;;;5030869;28;20052;-43
2024/03/21 11:14:09;;;;;;;1.50;0.95;;;22.30;85.80;;;;;;5030966;28;20039;-43
2024/03/21 11:16:40;;;;;;;2.50;0.90;;;22.40;85.70;;;;;;5031001;28;20072;-43
2024/03/21 11:19:06;;;;;;;0.95;0.70;;;22.40;85.50;;;;;;5030937;28;20024;-41
2024/03/21 11:21:32;;;;;;;1.40;1.08;;;22.40;85.30;;;;;;5030791;28;20088;-43
2024/03/21 11:23:58;;;;;;;1.58;0.90;;;22.50;85.20;;;;;;5031119;28;20041;-43
2024/03/21 11:26:24;;;;;;;1.25;0.85;;;22.50;85.00;;;;;;5030823;28;20025;-44
2024/03/21 11:28:50;;;;;;;1.30;0.90;;;22.50;85.00;;;;;;5030819;28;20481;-44
2024/03/21 11:31:23;;;;;;;0.80;0.70;;;22.60;84.90;;;;;;5030756;28;20384;-45
2024/03/21 11:33:50;;;;;;;1.60;0.90;;;22.60;84.90;;;;;;5030770;28;20017;-43
2024/03/21 11:36:18;;;;;;;1.85;0.95;;;22.60;84.70;;;;;;5030675;28;20021;-41
2024/03/21 11:38:44;;;;;;;1.15;0.80;;;22.70;85.00;;;;;;5030756;28;20033;-45
2024/03/21 11:41:21;;;;;;;1.20;0.80;;;22.70;85.60;;;;;;5030782;28;20021;-42
2024/03/21 11:43:51;;;;;;;1.73;0.90;;;22.80;84.70;;;;;;5030773;28;20047;-44
2024/03/21 11:46:19;;;;;;;1.13;0.90;;;22.90;85.20;;;;;;5033655;28;20053;-44
2024/03/21 11:48:59;;;;;;;0.93;0.70;;;23.00;85.00;;;;;;5034609;28;20027;-43
2024/03/21 11:51:25;;;;;;;1.17;0.85;;;23.00;85.00;;;;;;5034214;28;20025;-44
2024/03/21 11:53:50;;;;;;;1.05;0.90;;;23.00;84.90;;;;;;5034276;28;20084;-44
2024/03/21 11:56:16;;;;;;;2.55;1.00;;;23.20;84.60;;;;;;5034110;28;20104;-44
2024/03/21 11:58:42;;;;;;;1.40;0.80;;;23.40;83.60;;;;;;5034098;28;20033;-44
2024/03/21 12:01:08;;;;;;;1.50;0.80;;;23.70;82.90;;;;;;5033983;28;20029;-44
2024/03/21 12:03:33;;;;;;;1.17;0.70;;;24.00;82.70;;;;;;5034259;28;20029;-43
2024/03/21 12:05:59;;;;;;;1.25;0.70;;;23.90;82.30;;;;;;5034040;28;20025;-44
2024/03/21 12:08:25;;;;;;;0.85;0.70;;;23.90;82.00;;;;;;5033851;28;20057;-43
2024/03/21 12:10:51;;;;;;;1.15;0.73;;;24.00;81.80;;;;;;5033872;28;20049;-41
2024/03/21 12:13:17;;;;;;;1.20;0.80;;;24.00;81.50;;;;;;5033765;28;20116;-45
2024/03/21 12:15:43;;;;;;;1.25;0.70;;;24.00;81.60;;;;;;5033799;28;20489;-44
2024/03/21 12:18:08;;;;;;;1.13;0.90;;;24.00;82.00;;;;;;5033630;28;20071;-44
2024/03/21 12:20:34;;;;;;;0.73;0.70;;;23.90;82.00;;;;;;5033646;28;20028;-44
2024/03/21 12:22:59;;;;;;;1.20;0.70;;;23.80;81.90;;;;;;5033708;28;20033;-44
2024/03/21 12:25:25;;;;;;;1.23;0.80;;;23.90;81.60;;;;;;5033637;28;20081;-43
2024/03/21 12:27:51;;;;;;;1.15;0.77;;;24.00;81.30;;;;;;5033517;28;20375;-43
2024/03/21 12:30:17;;;;;;;1.45;0.80;;;24.10;81.80;;;;;;5033429;28;20786;-41
2024/03/21 12:32:42;;;;;;;1.33;0.70;;;24.10;80.80;;;;;;5033525;28;20037;-43
2024/03/21 12:35:09;;;;;;;1.13;0.70;;;24.10;80.70;;;;;;5033554;28;20033;-44
2024/03/21 12:37:35;;;;;;;1.77;0.70;;;24.10;80.70;;;;;;5033316;28;20018;-44
2024/03/21 12:40:01;;;;;;;1.45;0.63;;;24.10;80.60;;;;;;5033323;28;20021;-43
2024/03/21 12:42:26;;;;;;;1.25;0.80;;;24.10;80.60;;;;;;5033301;28;20029;-43
2024/03/21 12:44:52;;;;;;;2.95;1.10;;;24.00;80.40;;;;;;5033299;28;20509;-41
2024/03/21 12:47:18;;;;;;;1.73;1.02;;;24.00;80.40;;;;;;5033468;28;20036;-44